»·PEaware :: N9510L KAPV-KBFL

N9510L :: KAPV-KBFL

FLIGHT INFORMATION

Flight Status: Arrived
Operator: Privately registered:
United States
More flights under this callsign
Pilot: Rich S. (24902)
Aircraft: CESSNA 172 SKYHAWK
(C172)
More flights by this aircraft type
Origin: KAPV Apple Valley
United States
Destination: KBFL Meadows
United States
More flights between these airports :: More routes between these airports
Route: DP EXCONONE PMD LHS FASTO
File this flight plan on PilotEdge
Remarks: For Alphabet 1 flight
Altitude:
(Current/Filed)
8,500ft
Speed:
(Current/Filed)
115kts
Departed: 22-Feb-21 08:50 AM
Arrived: 22-Feb-21 10:03 AM
Distance/Time
Traveled:
105nm/1:13
Distance/Time
To Go:
Arrived

Flight Plot

Page will automatically refresh every two minutes.

Flight plan parsing failed; only flown route is shown


Map Options




Map Legend


Flown Route
Filed Route
Departure Airport
Arrival Airport
Navaid (VOR, NDB)
Fix

Horizontal Profiles

Position Reports

Time Latitude Longitude Heading Altitude Ground
Speed
22-Feb-21 07:59 34.575952 -117.190464 89 3066ft 0kts
22-Feb-21 08:00 34.575952 -117.190464 89 3066ft 0kts
22-Feb-21 08:01 34.575952 -117.190464 89 3066ft 0kts
22-Feb-21 08:02 34.575952 -117.190464 89 3066ft 0kts
22-Feb-21 08:03 34.575952 -117.190464 89 3066ft 0kts
22-Feb-21 08:04 34.575952 -117.190464 89 3066ft 0kts
22-Feb-21 08:05 34.575952 -117.190464 89 3066ft 0kts
22-Feb-21 08:06 34.575952 -117.190464 89 3066ft 0kts
22-Feb-21 08:08 34.575952 -117.190464 89 3066ft 0kts
22-Feb-21 08:09 33.675822 -117.871070 220 60ft 0kts
22-Feb-21 08:10 33.675822 -117.871070 220 60ft 0kts
22-Feb-21 08:11 34.575952 -117.190464 89 3066ft 0kts
22-Feb-21 08:12 34.575952 -117.190464 89 3066ft 0kts
22-Feb-21 08:13 34.575952 -117.190464 89 3066ft 0kts
22-Feb-21 08:14 34.575952 -117.190464 89 3066ft 0kts
22-Feb-21 08:16 34.575952 -117.190464 89 3066ft 0kts
22-Feb-21 08:17 34.575952 -117.190464 89 3066ft 0kts
22-Feb-21 08:18 34.575952 -117.190464 89 3066ft 0kts
22-Feb-21 08:19 34.575952 -117.190464 89 3066ft 0kts
22-Feb-21 08:20 34.575952 -117.190464 89 3066ft 0kts
22-Feb-21 08:21 34.575952 -117.190464 89 3066ft 0kts
22-Feb-21 08:22 34.575952 -117.190464 89 3066ft 0kts
22-Feb-21 08:23 34.575952 -117.190464 89 3066ft 0kts
22-Feb-21 08:24 34.575952 -117.190464 89 3066ft 0kts
22-Feb-21 08:25 34.575952 -117.190464 89 3066ft 0kts
22-Feb-21 08:26 34.575952 -117.190464 89 3066ft 0kts
22-Feb-21 08:27 34.575952 -117.190464 89 3066ft 0kts
22-Feb-21 08:28 34.575952 -117.190464 89 3066ft 0kts
22-Feb-21 08:29 34.575952 -117.190464 89 3066ft 0kts
22-Feb-21 08:30 34.575952 -117.190464 89 3066ft 0kts
22-Feb-21 08:31 34.575952 -117.190464 89 3066ft 0kts
22-Feb-21 08:32 34.575952 -117.190464 89 3066ft 0kts
22-Feb-21 08:33 34.575952 -117.190464 89 3066ft 0kts
22-Feb-21 08:34 34.575952 -117.190464 89 3066ft 0kts
22-Feb-21 08:35 34.575952 -117.190464 89 3066ft 0kts
22-Feb-21 08:36 34.575957 -117.190114 94 3066ft 7kts
22-Feb-21 08:36 34.575947 -117.188281 98 3066ft 0kts
22-Feb-21 08:38 34.574653 -117.188432 196 3066ft 8kts
22-Feb-21 08:39 34.572564 -117.189167 200 3066ft 7kts
22-Feb-21 08:40 34.570802 -117.189737 166 3066ft 2kts
22-Feb-21 08:41 34.570763 -117.189709 138 3066ft 0kts
22-Feb-21 08:41 34.570763 -117.189709 138 3066ft 0kts
22-Feb-21 08:42 34.570763 -117.189709 138 3066ft 0kts
22-Feb-21 08:44 34.570763 -117.189709 138 3066ft 0kts
22-Feb-21 08:45 34.570763 -117.189709 138 3066ft 0kts
22-Feb-21 08:45 34.570763 -117.189709 138 3066ft 0kts
22-Feb-21 08:46 34.570763 -117.189709 138 3066ft 0kts
22-Feb-21 08:47 34.570760 -117.189705 133 3066ft 0kts
22-Feb-21 08:48 34.570595 -117.188776 81 3066ft 9kts
22-Feb-21 08:49 34.584581 -117.183491 17 3370ft 77kts
22-Feb-21 08:50 34.605719 -117.176018 23 4033ft 81kts
22-Feb-21 08:51 34.627112 -117.175395 338 4711ft 77kts
22-Feb-21 08:52 34.649025 -117.180198 355 5271ft 84kts
22-Feb-21 08:53 34.671639 -117.182787 353 5872ft 81kts
22-Feb-21 08:54 34.694471 -117.185494 354 6410ft 83kts
22-Feb-21 08:55 34.717443 -117.188340 351 6925ft 83kts
22-Feb-21 08:56 34.723674 -117.209063 239 7260ft 101kts
22-Feb-21 08:57 34.717234 -117.242406 251 7588ft 103kts
22-Feb-21 08:58 34.713058 -117.275306 259 7969ft 104kts
22-Feb-21 08:59 34.709655 -117.309189 265 8409ft 98kts
22-Feb-21 09:00 34.707051 -117.345480 267 8532ft 118kts
22-Feb-21 09:01 34.704999 -117.386676 267 8538ft 123kts
22-Feb-21 09:02 34.702934 -117.428372 267 8539ft 123kts
22-Feb-21 09:03 34.700866 -117.470215 267 8539ft 124kts
22-Feb-21 09:04 34.698805 -117.512048 267 8540ft 124kts
22-Feb-21 09:05 34.696755 -117.553751 267 8541ft 124kts
22-Feb-21 09:06 34.692509 -117.595326 259 8542ft 124kts
22-Feb-21 09:07 34.682285 -117.635100 248 8543ft 124kts
22-Feb-21 09:08 34.671896 -117.674870 260 8542ft 124kts
22-Feb-21 09:09 34.666263 -117.716331 260 8541ft 124kts
22-Feb-21 09:10 34.660629 -117.757733 261 8540ft 124kts
22-Feb-21 09:11 34.654877 -117.799994 260 8542ft 128kts
22-Feb-21 09:12 34.649991 -117.843274 263 8541ft 129kts
22-Feb-21 09:13 34.645662 -117.886547 264 8539ft 129kts
22-Feb-21 09:14 34.641655 -117.929893 264 8538ft 129kts
22-Feb-21 09:15 34.637659 -117.973259 264 8538ft 129kts
22-Feb-21 09:16 34.633742 -118.015854 264 8532ft 122kts
22-Feb-21 09:17 34.630021 -118.056213 264 8529ft 119kts
22-Feb-21 09:18 34.635008 -118.095481 280 8527ft 118kts
22-Feb-21 09:19 34.640099 -118.134859 278 8527ft 118kts
22-Feb-21 09:20 34.644075 -118.174477 275 8528ft 118kts
22-Feb-21 09:21 34.646637 -118.214147 275 8528ft 117kts
22-Feb-21 09:22 34.649194 -118.253595 275 8528ft 117kts
22-Feb-21 09:23 34.651769 -118.292988 275 8529ft 117kts
22-Feb-21 09:24 34.655119 -118.332211 278 8530ft 117kts
22-Feb-21 09:25 34.659184 -118.369817 278 8760ft 99kts
22-Feb-21 09:26 34.662135 -118.398819 278 9222ft 73kts
22-Feb-21 09:27 34.662862 -118.422487 304 9407ft 75kts
22-Feb-21 09:28 34.671040 -118.452452 269 9286ft 113kts
22-Feb-21 09:29 34.674541 -118.488830 288 9431ft 109kts
22-Feb-21 09:30 34.684258 -118.524851 291 9489ft 110kts
22-Feb-21 09:31 34.683830 -118.562557 265 9549ft 113kts
22-Feb-21 09:32 34.686972 -118.599081 303 9594ft 115kts
22-Feb-21 09:33 34.711780 -118.612708 1 9926ft 93kts
22-Feb-21 09:34 34.735792 -118.617867 344 10302ft 89kts
22-Feb-21 09:35 34.760255 -118.628350 343 10604ft 104kts
22-Feb-21 09:36 34.790334 -118.638578 347 10413ft 140kts
22-Feb-21 09:37 34.822346 -118.647793 347 10372ft 104kts
22-Feb-21 09:38 34.845944 -118.656396 346 10492ft 81kts
22-Feb-21 09:39 34.872979 -118.666052 346 10548ft 117kts
22-Feb-21 09:40 34.905816 -118.677440 346 10554ft 125kts
22-Feb-21 09:41 34.939449 -118.689374 346 10552ft 126kts
22-Feb-21 09:42 34.972016 -118.701279 346 10144ft 124kts
22-Feb-21 09:43 35.005983 -118.713935 346 9544ft 131kts
22-Feb-21 09:44 35.041042 -118.727312 346 8936ft 132kts
22-Feb-21 09:45 35.075862 -118.741897 343 8293ft 136kts
22-Feb-21 09:46 35.110800 -118.757927 339 7478ft 123kts
22-Feb-21 09:47 35.139806 -118.774801 338 6667ft 112kts
22-Feb-21 09:48 35.167595 -118.790647 338 5864ft 110kts
22-Feb-21 09:49 35.195374 -118.805871 338 5061ft 109kts
22-Feb-21 09:50 35.222899 -118.821237 333 4259ft 109kts
22-Feb-21 09:51 35.248741 -118.840440 329 3458ft 109kts
22-Feb-21 09:52 35.274143 -118.859282 329 2789ft 97kts
22-Feb-21 09:53 35.298168 -118.877295 329 2644ft 113kts
22-Feb-21 09:54 35.322116 -118.901708 315 2629ft 110kts
22-Feb-21 09:55 35.340689 -118.930407 296 2650ft 108kts
22-Feb-21 09:56 35.352487 -118.964230 295 2701ft 104kts
22-Feb-21 09:57 35.379430 -118.979771 20 2542ft 103kts
22-Feb-21 09:58 35.402668 -118.973597 275 2142ft 117kts
22-Feb-21 09:59 35.395499 -119.006512 289 1056ft 105kts
22-Feb-21 10:00 35.411887 -119.030078 317 1000ft 82kts
22-Feb-21 10:01 35.426934 -119.047909 313 670ft 70kts
22-Feb-21 10:02 35.436850 -119.059858 314 490ft 21kts
22-Feb-21 10:03 35.440332 -119.063314 26 497ft 10kts
22-Feb-21 10:04 35.439285 -119.060538 136 498ft 15kts
22-Feb-21 10:05 35.435545 -119.055967 138 493ft 23kts
22-Feb-21 10:06 35.435354 -119.053491 46 500ft 0kts
22-Feb-21 10:07 35.435354 -119.053491 46 500ft 0kts
22-Feb-21 10:08 35.435354 -119.053491 46 500ft 0kts
22-Feb-21 10:09 35.435354 -119.053491 46 500ft 0kts
22-Feb-21 10:10 35.435354 -119.053491 46 500ft 0kts
22-Feb-21 10:11 35.435354 -119.053491 46 500ft 0kts
22-Feb-21 10:12 35.435354 -119.053491 46 500ft 0kts
22-Feb-21 10:13 35.435354 -119.053491 46 500ft 0kts
22-Feb-21 10:14 35.435355 -119.053491 46 500ft 0kts
22-Feb-21 10:15 35.435670 -119.052789 75 502ft 0kts
22-Feb-21 10:16 35.435683 -119.052729 75 502ft 0kts

Navigation Log

Ident Type
Flight plan parsing failed, navigation log unavailable